スィクティフカル の空港の天気 - METARとTAF

Syktyvkar ( UUYY / SCW ) - ロシア スィクティフカル
飛行場実況気象(Metar)
観測時間08/18 05:00 MSK (08/18 02:00 UTC)
風向・風速静穏 0m/s
視程750m
天気現象
全天の4割程度の雲 雲底高度 30m
気温7℃
湿度100%
気圧1022hPa
METARUUYY 180200Z 00000MPS 0750 0150N R18/0225N FG SCT001 07/07 Q1022 R18/CLRD61 NOSIG RMK QBB050 QFE758/1011
過去の天気等 Google飛行場航空写真 Wunderground天気予報

過去48時間のMETAR

飛行場予報(TAF)
発表時間: 8/18 02:00 MSK (8/17 23:00 UTC)
予報対象時間: 18日3時 MSK ~ 19日3時 MSK
風向・風速不定 1m/s
視程3100m
天気現象もや
全天の8割程度の雲 雲底高度 340m
18日3時 MSK ~ 18日7時 MSK に一時的に
視程300m
天気現象
全天の8割程度の雲 雲底高度 60m
18日7時 MSK から
風向・風速東 3m/s
視程10km以上
全天の4割程度の雲 雲底高度 610m
18日13時 MSK ~ 18日15時 MSK に徐々に
風向・風速東 3m/s 瞬間風速 8m/s
全天の8割程度の積乱雲 雲底高度 610m
18日18時 MSK ~ 19日3時 MSK に一時的に
天気現象弱いしゅう雨
全天の8割程度の雲 雲底高度 340m
全天の8割程度の積乱雲 雲底高度 520m
TAF UUYY 172300Z 1800/1824 VRB01MPS 3100 BR BKN011
TEMPO 1800/1804 0300 FG BKN002
FM180400 10003MPS 9999 SCT020
BECMG 1810/1812 08003G08MPS BKN020CB
TEMPO 1815/1824 -SHRA BKN011 BKN017CB